createdAt,value
2022-09-01T00:01:27.058Z,19.50
2022-09-01T00:06:26.257Z,19.40
2022-09-01T00:11:26.070Z,19.40
2022-09-01T00:16:24.917Z,19.40
2022-09-01T00:21:23.612Z,19.40
2022-09-01T00:26:22.644Z,19.40
2022-09-01T00:31:21.754Z,19.40
2022-09-01T00:36:20.644Z,19.50
2022-09-01T00:41:19.560Z,19.50
2022-09-01T00:46:20.466Z,19.50
2022-09-01T00:51:19.736Z,19.60
2022-09-01T00:56:18.932Z,19.70
2022-09-01T01:01:17.818Z,19.80
2022-09-01T01:06:18.664Z,19.80
2022-09-01T01:11:17.902Z,19.80
2022-09-01T01:16:17.640Z,19.80
2022-09-01T01:21:35.229Z,19.70
2022-09-01T01:26:33.993Z,19.70
2022-09-01T01:31:32.711Z,19.80
2022-09-01T01:36:33.972Z,19.80
2022-09-01T01:41:33.976Z,19.80
2022-09-01T01:46:32.890Z,19.90
2022-09-01T01:51:34.032Z,19.90
2022-09-01T01:56:34.576Z,19.90
2022-09-01T02:01:33.798Z,20.00
2022-09-01T02:06:32.841Z,19.90
2022-09-01T02:11:33.512Z,20.00
2022-09-01T02:16:33.326Z,20.00
2022-09-01T02:21:32.664Z,20.00
2022-09-01T02:26:32.369Z,20.00
2022-09-01T02:31:33.578Z,20.00
2022-09-01T02:36:34.896Z,19.90
2022-09-01T02:41:34.116Z,19.80
2022-09-01T02:46:33.344Z,19.70
2022-09-01T02:51:34.469Z,19.60
2022-09-01T02:56:36.884Z,19.60
2022-09-01T03:01:36.137Z,19.50
2022-09-01T03:06:35.912Z,19.50
2022-09-01T03:11:35.028Z,19.50
2022-09-01T03:16:33.992Z,19.50
2022-09-01T03:21:32.973Z,19.40
2022-09-01T03:26:31.705Z,19.40
2022-09-01T03:31:31.977Z,19.30
2022-09-01T03:36:33.534Z,19.20
2022-09-01T03:41:32.800Z,19.10
2022-09-01T03:46:36.662Z,19.00
2022-09-01T03:51:34.429Z,19.00
2022-09-01T03:56:34.040Z,18.90
2022-09-01T04:01:34.971Z,18.80
2022-09-01T04:06:33.791Z,18.80
2022-09-01T04:11:33.107Z,18.70
2022-09-01T04:16:49.807Z,18.60
2022-09-01T04:21:50.268Z,18.50
2022-09-01T04:26:49.960Z,18.40
2022-09-01T04:31:50.848Z,18.40
2022-09-01T04:36:51.640Z,18.30
2022-09-01T04:41:53.791Z,18.20
2022-09-01T04:46:53.019Z,18.20
2022-09-01T04:51:54.027Z,18.20
2022-09-01T04:56:54.604Z,18.20
2022-09-01T05:01:56.311Z,18.20
2022-09-01T05:06:57.781Z,18.30
2022-09-01T05:11:59.605Z,18.30
2022-09-01T05:17:00.287Z,18.30
2022-09-01T05:21:59.462Z,18.40
2022-09-01T05:27:00.554Z,18.40
2022-09-01T05:32:04.233Z,18.50
2022-09-01T05:37:02.913Z,18.60
2022-09-01T05:42:03.704Z,18.50
2022-09-01T05:47:04.893Z,18.60
2022-09-01T05:52:04.835Z,18.70
2022-09-01T05:57:30.246Z,18.60
2022-09-01T06:02:07.929Z,18.70
2022-09-01T06:07:12.735Z,18.70
2022-09-01T06:12:12.887Z,18.80
2022-09-01T06:17:13.799Z,18.90
2022-09-01T06:22:13.386Z,18.90
2022-09-01T06:27:11.808Z,19.00
2022-09-01T06:32:12.245Z,19.00
2022-09-01T06:37:11.214Z,19.10
2022-09-01T06:42:18.613Z,19.30
2022-09-01T06:47:19.106Z,19.50
2022-09-01T06:52:19.896Z,19.60
2022-09-01T07:02:24.484Z,20.10
2022-09-01T07:17:46.877Z,20.90
2022-09-01T07:27:50.367Z,21.40
2022-09-01T07:32:50.813Z,21.60
2022-09-01T07:47:57.482Z,22.20
2022-09-01T07:52:57.403Z,22.40
2022-09-01T07:57:57.731Z,22.60
2022-09-01T08:02:57.370Z,22.70
2022-09-01T08:07:58.739Z,22.80
2022-09-01T08:12:57.881Z,23.00
2022-09-01T08:17:58.906Z,23.20
2022-09-01T08:23:02.718Z,23.30
2022-09-01T08:28:02.379Z,23.30
2022-09-01T08:33:10.193Z,23.50
2022-09-01T08:38:02.217Z,23.80
2022-09-01T08:43:01.320Z,24.10
2022-09-01T08:48:29.189Z,24.40
2022-09-01T08:53:09.177Z,24.60
2022-09-01T08:58:05.653Z,24.60
2022-09-01T09:03:07.429Z,24.80
2022-09-01T09:08:07.257Z,24.80
2022-09-01T09:13:05.851Z,24.90
2022-09-01T09:18:04.889Z,25.00
2022-09-01T09:23:05.941Z,25.20
2022-09-01T09:28:04.829Z,25.20
2022-09-01T09:38:04.853Z,25.20
2022-09-01T09:43:04.037Z,25.30
2022-09-01T09:48:02.890Z,25.30
2022-09-01T09:53:02.776Z,25.20
2022-09-01T09:58:02.037Z,25.40
2022-09-01T10:03:08.054Z,25.60
2022-09-01T10:08:02.890Z,26.00
2022-09-01T10:13:04.331Z,26.20
2022-09-01T10:18:28.308Z,26.40
2022-09-01T10:23:06.272Z,26.50
2022-09-01T10:28:06.903Z,26.20
2022-09-01T10:33:12.120Z,25.80
2022-09-01T10:38:08.277Z,26.00
2022-09-01T10:43:12.483Z,26.40
2022-09-01T10:48:13.237Z,26.80
2022-09-01T10:53:11.480Z,27.30
2022-09-01T10:59:31.273Z,27.70
2022-09-01T11:08:15.974Z,28.20
2022-09-01T11:13:15.456Z,28.50
2022-09-01T11:18:14.653Z,28.90
2022-09-01T11:23:15.561Z,29.20
2022-09-01T11:28:15.031Z,29.70
2022-09-01T11:33:15.956Z,30.00
2022-09-01T11:38:14.963Z,29.80
2022-09-01T11:43:14.520Z,30.20
2022-09-01T11:48:14.963Z,30.50
2022-09-01T11:53:13.974Z,30.70
2022-09-01T11:58:17.595Z,31.10
2022-09-01T12:03:14.194Z,31.40
2022-09-01T12:08:13.603Z,31.70
2022-09-01T12:13:12.056Z,31.80
2022-09-01T12:18:10.985Z,31.80
2022-09-01T12:23:10.800Z,31.50
2022-09-01T12:28:11.004Z,30.80
2022-09-01T12:33:25.465Z,30.10
2022-09-01T12:38:11.071Z,29.70
2022-09-01T12:43:10.078Z,29.90
2022-09-01T12:48:11.971Z,30.30
2022-09-01T12:53:11.117Z,30.20
2022-09-01T12:58:12.278Z,30.10
2022-09-01T13:03:11.237Z,29.90
2022-09-01T13:08:10.104Z,29.80
2022-09-01T13:13:09.128Z,30.20
2022-09-01T13:18:08.082Z,30.90
2022-09-01T13:23:07.124Z,31.40
2022-09-01T13:28:07.364Z,31.30
2022-09-01T13:33:22.791Z,30.90
2022-09-01T13:38:07.133Z,30.60
2022-09-01T13:43:06.523Z,30.80
2022-09-01T13:48:20.577Z,31.20
2022-09-01T13:53:06.146Z,31.80
2022-09-01T13:58:05.063Z,32.10
2022-09-01T14:03:04.152Z,32.10
2022-09-01T14:08:03.053Z,31.80
2022-09-01T14:13:02.148Z,30.90
2022-09-01T14:18:01.149Z,30.40
2022-09-01T14:23:00.088Z,30.10
2022-09-01T14:28:00.051Z,29.80
2022-09-01T14:32:59.499Z,29.60
2022-09-01T14:37:58.556Z,29.50
2022-09-01T14:42:57.133Z,29.60
2022-09-01T14:47:56.174Z,29.70
2022-09-01T14:52:55.160Z,29.70
2022-09-01T14:57:54.670Z,29.70
2022-09-01T15:02:54.209Z,29.90
2022-09-01T15:07:53.093Z,30.00
2022-09-01T15:12:52.116Z,30.00
2022-09-01T15:17:51.127Z,30.10
2022-09-01T15:22:50.138Z,30.00
2022-09-01T15:27:49.220Z,29.70
2022-09-01T15:32:48.181Z,29.60
2022-09-01T15:37:47.461Z,29.70
2022-09-01T15:42:46.309Z,29.70
2022-09-01T15:47:46.036Z,29.80
2022-09-01T15:52:45.649Z,29.90
2022-09-01T15:57:44.164Z,29.80
2022-09-01T16:02:43.194Z,29.40
2022-09-01T16:07:42.187Z,28.90
2022-09-01T16:12:43.069Z,28.50
2022-09-01T16:17:43.258Z,28.00
2022-09-01T16:22:42.294Z,27.70
2022-09-01T16:27:41.370Z,27.50
2022-09-01T16:32:40.246Z,27.20
2022-09-01T16:37:39.690Z,27.00
2022-09-01T16:42:40.032Z,26.90
2022-09-01T16:47:42.258Z,26.70
2022-09-01T16:52:41.469Z,26.50
2022-09-01T16:57:41.078Z,26.40
2022-09-01T17:02:41.625Z,26.30
2022-09-01T17:07:40.248Z,26.30
2022-09-01T17:12:39.882Z,26.10
2022-09-01T17:17:39.302Z,26.00
2022-09-01T17:22:38.306Z,25.80
2022-09-01T17:27:37.305Z,25.60
2022-09-01T17:32:36.237Z,25.40
2022-09-01T17:37:38.307Z,25.30
2022-09-01T17:42:37.843Z,25.00
2022-09-01T17:47:36.567Z,24.90
2022-09-01T17:52:35.241Z,24.70
2022-09-01T17:57:34.224Z,24.40
2022-09-01T18:02:33.253Z,24.20
2022-09-01T18:07:32.279Z,24.00
2022-09-01T18:12:31.294Z,23.70
2022-09-01T18:17:31.052Z,23.40
2022-09-01T18:22:30.434Z,23.20
2022-09-01T18:27:33.209Z,23.00
2022-09-01T18:32:30.607Z,22.70
2022-09-01T18:37:29.533Z,22.60
2022-09-01T18:42:28.546Z,22.40
2022-09-01T18:47:27.857Z,22.20
2022-09-01T18:52:26.638Z,22.00
2022-09-01T18:57:25.666Z,21.80
2022-09-01T19:02:24.672Z,21.60
2022-09-01T19:07:23.577Z,21.60
2022-09-01T19:12:22.298Z,21.50
2022-09-01T19:17:21.293Z,21.50
2022-09-01T19:22:20.321Z,21.60
2022-09-01T19:27:20.914Z,21.50
2022-09-01T19:32:20.398Z,21.50
2022-09-01T19:37:19.401Z,21.40
2022-09-01T19:42:18.501Z,21.40
2022-09-01T19:47:17.281Z,21.40
2022-09-01T19:52:16.554Z,21.40
2022-09-01T19:57:15.310Z,21.30
2022-09-01T20:02:14.673Z,21.20
2022-09-01T20:07:13.549Z,21.20
2022-09-01T20:12:14.123Z,21.20
2022-09-01T20:17:13.629Z,21.10
2022-09-01T20:22:12.415Z,21.10
2022-09-01T20:27:11.622Z,21.10
2022-09-01T20:32:10.434Z,21.10
2022-09-01T20:37:09.462Z,21.10
2022-09-01T20:42:08.470Z,21.10
2022-09-01T20:47:07.386Z,21.10
2022-09-01T20:52:06.483Z,21.00
2022-09-01T20:57:05.403Z,21.00
2022-09-01T21:02:04.983Z,20.90
2022-09-01T21:07:04.809Z,20.90
2022-09-01T21:12:03.561Z,20.90
2022-09-01T21:17:02.606Z,20.80
2022-09-01T21:22:01.378Z,20.80
2022-09-01T21:27:00.893Z,20.80
2022-09-01T21:31:59.368Z,20.80
2022-09-01T21:36:58.720Z,20.70
2022-09-01T21:41:57.652Z,20.70
2022-09-01T21:46:56.639Z,20.70
2022-09-01T21:51:55.667Z,20.70
2022-09-01T21:56:54.677Z,20.60
2022-09-01T22:01:54.015Z,20.60
2022-09-01T22:06:53.496Z,20.60
2022-09-01T22:11:52.457Z,20.50
2022-09-01T22:16:51.512Z,20.50
2022-09-01T22:21:50.535Z,20.50
2022-09-01T22:26:49.459Z,20.40
2022-09-01T22:31:48.436Z,20.40
2022-09-01T22:36:47.463Z,20.40
2022-09-01T22:41:46.886Z,20.40
2022-09-01T22:46:45.691Z,20.40
2022-09-01T22:51:44.891Z,20.30
2022-09-01T22:56:44.962Z,20.30
2022-09-01T23:01:43.932Z,20.30
2022-09-01T23:06:43.380Z,20.20
2022-09-01T23:11:42.495Z,20.20
2022-09-01T23:16:41.649Z,20.20
2022-09-01T23:21:40.707Z,20.10
2022-09-01T23:26:39.756Z,20.10
2022-09-01T23:31:38.797Z,20.10
2022-09-01T23:36:37.861Z,20.10
2022-09-01T23:41:36.561Z,20.10
2022-09-01T23:46:36.497Z,20.10
2022-09-01T23:51:35.484Z,20.10
2022-09-01T23:56:34.603Z,20.10
